Bega, New South Wales

9:37 AM AEST on August 30, 2015 (GMT +1000)
Wallagoot Lake | | Change Station
CLOSE
Current Station
Personal Weather Station
Location: Wallagoot, NSW
Elevation: 30 ft
Nearby Weather Stations

Elev 30 ft 36.78 °S, 149.94 °E | Updated 24 seconds ago

Scattered Clouds
Scattered Clouds
32.0 °F
Feels Like 32 °F
N
0.0
Wind Variable Wind from North
Gusts 0.0 mph

Today
High -- | Low -- °F
--% Chance of Precip.
Yesterday
High -- | Low -- °F
Precip. -- in
6:25 AM 5:38 PM
Full, 100% visible
Pressure 30.12 in
Visibility 6.2 miles
Clouds Scattered Clouds 3300 ft
Scattered Clouds 4600 ft
Windchill 32 °F
Dew Point Not available.
Humidity Not available.
Rainfall 0.00 in
Snow Depth Not available.
UV 2 out of 12
Pollen Not available.
Air Quality Not available.
Flu Activity Not available.
METAR YMER 292300Z AUTO 24011KT 9999 // SCT033 SCT046 13/06 Q1020
Pressure 30.12 in
Visibility 6.2 miles
Clouds Scattered Clouds 3300 ft
Scattered Clouds 4600 ft
Windchill 32 °F
Dew Point Not available.
Humidity Not available.
Rainfall 0.00 in
Snow Depth Not available.
UV 2 out of 12
Pollen Not available.
Air Quality Not available.
Flu Activity Not available.
METAR YMER 292300Z AUTO 24011KT 9999 // SCT033 SCT046 13/06 Q1020

10-Day Weather Forecast

×

Almanac

Astronomy

Aug. 30, 2015 Rise Set
Actual Time
Civil Twilight
Nautical Twilight
Astronomical Twilight
Moon
Length of Visible Light
Length of Day
Tomorrow will be .
, % of the Moon is Illuminated

Today's Extremes

Country Highs Country Lows

Community

WunderPhotos

Upload Photos

1,850,783 photos uploaded!

WunderBlogs® & News

Nearby

Air Quality

  Air Quality AQ Index Pollutant
Not available.

Snow Depth

Station Depth Elevation

Earthquake Activity

City Distance Mag. Time & Date
Minimum magnitude displayed is 2.5.

Coastal Water Temperatures

Place Temperature

Stations

Nearby Weather Stations

Station Location Temp. Windchill Dew Point Humidity Wind Precip. Elev Updated Type